KCNB

Myers Field Airport

Canby, Minnesota, USA
METAR KCNB 252235Z AUTO 16007KT 10SM CLR 26/17 A2973 RMK AO2 LTG DSNT SE T02580172
Observed Flight Rules
May-25 @ 22:35 UTC (7 minutes ago) Visual Flight Rules
Wind Visibility Clouds
160° at 7 knots 10 miles
  • Clear skies
Temperatures Readings
Current 26°C / 79°F
Dewpoint 17°C / 63°F
Humidity 58%
Altimeter 29.73" Hg
Pressure 1007 hPa
Elevation 364
METAR KCNB 252235Z AUTO 16007KT 10SM CLR 26/17 A2973 RMK AO2 LTG DSNT SE T02580172
Observed Flight Rules
May-25 @ 22:35 UTC
(7 minutes ago)
VFR
Wind Visibility
160° at 7 knots 10 miles
Clouds
  • Clear skies
Temperature Dewpoint
26°C / 79°F 17°C / 63°F
Humidity Altimeter Pressure
58% 29.73" Hg 1007 hPa